Time;durP1;ratioP1;P1;durP2;ratioP2;P2;SDS_P1;SDS_P2;PMS_P1;PMS_P2;Temp;Humidity;BMP_temperature;BMP_pressure;BME280_temperature;BME280_humidity;BME280_pressure;Samples;Min_cycle;Max_cycle;Signal;HPM_P1;HPM_P2
2021/08/10 00:01:18;;;;;;;3.07;1.53;;;15.90;99.90;;;;;;5020820;28;20193;-71
2021/08/10 00:03:43;;;;;;;2.30;1.60;;;15.90;99.90;;;;;;5013203;28;20603;-71
2021/08/10 00:06:09;;;;;;;2.97;1.80;;;15.80;99.90;;;;;;5012964;28;20209;-71
2021/08/10 00:08:35;;;;;;;4.00;1.67;;;15.80;99.90;;;;;;5012907;28;20158;-71
2021/08/10 00:11:00;;;;;;;2.43;1.97;;;15.70;99.90;;;;;;5013259;28;20529;-71
2021/08/10 00:13:26;;;;;;;2.50;1.67;;;15.70;99.90;;;;;;5012912;28;20154;-71
2021/08/10 00:15:52;;;;;;;3.63;1.73;;;15.70;99.90;;;;;;5013747;28;20210;-71
2021/08/10 00:18:18;;;;;;;2.93;1.90;;;15.60;99.90;;;;;;5013343;28;20190;-71
2021/08/10 00:20:44;;;;;;;1.90;1.70;;;15.60;99.90;;;;;;5012857;28;20404;-71
2021/08/10 00:23:10;;;;;;;9.20;1.77;;;15.60;99.90;;;;;;5012659;28;20392;-71
2021/08/10 00:25:35;;;;;;;1.90;1.50;;;15.50;99.90;;;;;;5012634;28;20186;-71
2021/08/10 00:28:01;;;;;;;3.40;1.87;;;15.50;99.90;;;;;;5012589;28;20280;-71
2021/08/10 00:30:27;;;;;;;4.07;2.60;;;15.40;99.90;;;;;;5012815;28;20154;-71
2021/08/10 00:32:53;;;;;;;10.60;2.50;;;15.40;99.90;;;;;;5013180;28;20415;-71
2021/08/10 00:35:19;;;;;;;5.27;3.17;;;15.40;99.90;;;;;;5027525;28;20451;-71
2021/08/10 00:37:45;;;;;;;6.30;4.00;;;15.40;99.90;;;;;;5012579;28;20433;-71
2021/08/10 00:40:12;;;;;;;11.50;6.80;;;15.30;99.90;;;;;;5012638;28;20782;-71
2021/08/10 00:42:38;;;;;;;10.20;5.13;;;15.30;99.90;;;;;;5028356;28;20423;-71
2021/08/10 00:45:05;;;;;;;8.97;4.90;;;15.30;99.90;;;;;;5032554;28;20393;-71
2021/08/10 00:47:31;;;;;;;4.13;3.43;;;15.30;99.90;;;;;;5032307;28;20196;-71
2021/08/10 00:49:56;;;;;;;5.30;3.00;;;15.20;99.90;;;;;;5023921;28;20425;-71
2021/08/10 00:52:22;;;;;;;3.90;2.07;;;15.20;99.90;;;;;;5013110;28;20193;-71
2021/08/10 00:54:48;;;;;;;2.30;1.80;;;15.20;99.90;;;;;;5012514;28;20162;-71
2021/08/10 00:57:14;;;;;;;5.03;2.73;;;15.20;99.90;;;;;;5012612;28;20170;-71
2021/08/10 00:59:39;;;;;;;2.30;1.67;;;15.20;99.90;;;;;;5018250;28;20207;-71
2021/08/10 01:02:06;;;;;;;5.60;2.40;;;15.20;99.90;;;;;;5032254;28;20392;-71
2021/08/10 01:04:33;;;;;;;5.03;2.80;;;15.10;99.90;;;;;;5032104;28;20176;-71
2021/08/10 01:12:18;;;;;;;21.33;8.67;;;15.10;99.90;;;;;;5070165;28;20536;-72
2021/08/10 01:17:47;;;;;;;18.87;9.93;;;15.00;99.90;;;;;;5070002;28;20618;-74
2021/08/10 01:23:17;;;;;;;15.03;7.50;;;15.00;99.90;;;;;;5087444;27;20851;-73
2021/08/10 01:26:06;;;;;;;14.90;6.87;;;15.00;99.90;;;;;;5069889;28;20434;-73
2021/08/10 01:28:59;;;;;;;6.07;3.83;;;15.00;99.90;;;;;;5069030;28;20898;-73
2021/08/10 01:31:28;;;;;;;5.77;3.70;;;15.00;99.90;;;;;;5068810;28;20409;-73
2021/08/10 01:34:00;;;;;;;8.83;3.70;;;14.90;99.90;;;;;;5069266;28;20406;-70
2021/08/10 01:36:26;;;;;;;7.37;3.73;;;14.90;99.90;;;;;;5069659;28;20418;-70
2021/08/10 01:38:59;;;;;;;5.00;3.07;;;14.90;99.90;;;;;;5069530;28;20798;-70
2021/08/10 01:41:26;;;;;;;12.00;6.23;;;14.90;99.90;;;;;;5069178;28;20456;-70
2021/08/10 01:43:54;;;;;;;19.77;9.93;;;14.90;99.90;;;;;;5069263;28;20938;-70
2021/08/10 01:46:22;;;;;;;21.97;10.83;;;14.90;99.90;;;;;;5069461;28;20393;-70
2021/08/10 01:48:49;;;;;;;21.40;11.27;;;14.90;99.90;;;;;;5069553;28;20386;-70
2021/08/10 01:51:15;;;;;;;17.47;8.33;;;14.90;99.90;;;;;;5069257;28;20417;-70
2021/08/10 01:53:41;;;;;;;15.93;8.63;;;14.80;99.90;;;;;;5069294;28;20397;-70
2021/08/10 01:56:07;;;;;;;17.90;9.53;;;14.80;99.90;;;;;;5069411;28;20488;-70
2021/08/10 01:58:35;;;;;;;9.60;6.40;;;14.80;99.90;;;;;;5069165;28;20773;-70
2021/08/10 02:01:01;;;;;;;10.77;6.40;;;14.80;99.90;;;;;;5068757;28;20477;-70
2021/08/10 02:03:28;;;;;;;8.27;4.53;;;14.80;99.90;;;;;;5069084;28;20402;-70
2021/08/10 02:05:54;;;;;;;4.00;2.97;;;14.80;99.90;;;;;;5068957;28;20474;-70
2021/08/10 02:08:21;;;;;;;4.40;2.70;;;14.80;99.90;;;;;;5068558;28;20405;-70
2021/08/10 02:10:47;;;;;;;8.43;2.60;;;14.80;99.90;;;;;;5069296;28;20387;-70
2021/08/10 02:13:14;;;;;;;2.13;1.93;;;14.80;99.90;;;;;;5068878;28;20382;-70
2021/08/10 02:15:42;;;;;;;4.47;2.50;;;14.80;99.90;;;;;;5068525;28;20410;-70
2021/08/10 02:18:09;;;;;;;6.47;2.90;;;14.80;99.90;;;;;;5068673;28;20923;-70
2021/08/10 02:20:36;;;;;;;4.43;3.50;;;14.80;99.90;;;;;;5068869;28;20819;-70
2021/08/10 02:23:02;;;;;;;5.27;3.13;;;14.80;99.90;;;;;;5068482;28;20472;-71
2021/08/10 02:25:29;;;;;;;4.00;2.97;;;14.90;99.90;;;;;;5068862;28;20452;-71
2021/08/10 02:27:57;;;;;;;3.87;3.17;;;14.90;99.90;;;;;;5068592;28;20808;-71
2021/08/10 02:30:27;;;;;;;5.67;3.37;;;14.90;99.90;;;;;;5068513;28;20548;-71
2021/08/10 02:32:55;;;;;;;8.57;3.40;;;14.90;99.90;;;;;;5063672;28;20783;-71
2021/08/10 02:35:23;;;;;;;4.83;3.40;;;14.90;99.90;;;;;;5043236;28;20497;-72
2021/08/10 02:37:50;;;;;;;2.87;2.10;;;14.90;99.90;;;;;;5035198;28;20407;-72
2021/08/10 02:40:18;;;;;;;4.00;2.30;;;14.90;99.90;;;;;;5035636;28;20447;-72
2021/08/10 02:42:54;;;;;;;2.40;2.07;;;14.90;99.90;;;;;;5051437;28;20863;-72
2021/08/10 02:45:20;;;;;;;3.40;2.87;;;14.90;99.90;;;;;;5054969;28;20391;-72
2021/08/10 02:47:49;;;;;;;3.93;2.27;;;15.00;99.90;;;;;;5054963;28;20395;-72
2021/08/10 02:50:15;;;;;;;3.93;2.43;;;15.00;99.90;;;;;;5054939;28;20823;-71
2021/08/10 02:52:40;;;;;;;2.50;1.90;;;15.00;99.90;;;;;;5054910;28;20391;-71
2021/08/10 02:55:07;;;;;;;3.37;1.60;;;15.00;99.90;;;;;;5055054;28;20596;-71
2021/08/10 02:57:39;;;;;;;6.87;2.03;;;15.00;99.90;;;;;;5055607;28;20168;-71
2021/08/10 03:00:09;;;;;;;3.53;2.63;;;15.00;99.90;;;;;;5054605;28;20911;-71
2021/08/10 03:02:43;;;;;;;2.77;2.00;;;15.10;99.90;;;;;;5054693;28;20450;-71
2021/08/10 03:05:12;;;;;;;3.90;2.13;;;15.10;99.90;;;;;;5054433;28;20389;-71
2021/08/10 03:07:41;;;;;;;3.20;1.90;;;15.10;99.90;;;;;;5054309;28;20498;-71
2021/08/10 03:10:08;;;;;;;2.40;1.87;;;15.10;99.90;;;;;;5055096;28;20395;-71
2021/08/10 03:12:40;;;;;;;2.87;2.10;;;15.20;99.90;;;;;;5054808;28;20872;-71
2021/08/10 03:15:06;;;;;;;3.23;2.50;;;15.20;99.90;;;;;;5054544;28;20394;-71
2021/08/10 03:17:37;;;;;;;2.47;2.00;;;15.30;99.90;;;;;;5054462;28;20392;-71
2021/08/10 03:20:04;;;;;;;4.53;3.90;;;15.30;99.90;;;;;;5054261;28;20399;-71
2021/08/10 03:22:32;;;;;;;2.53;1.83;;;15.30;99.90;;;;;;5053922;28;20506;-71
2021/08/10 03:24:58;;;;;;;3.20;2.27;;;15.30;99.90;;;;;;5054681;28;20425;-71
2021/08/10 03:27:25;;;;;;;2.17;1.97;;;15.30;99.90;;;;;;5054301;28;20424;-71
2021/08/10 03:29:53;;;;;;;4.37;2.27;;;15.30;99.90;;;;;;5054261;28;20904;-70
2021/08/10 03:32:19;;;;;;;3.37;2.13;;;15.30;99.90;;;;;;5054040;28;20926;-71
2021/08/10 03:34:46;;;;;;;3.77;2.33;;;15.30;99.90;;;;;;5038097;28;20423;-71
2021/08/10 03:37:13;;;;;;;3.43;2.40;;;15.40;99.90;;;;;;5034193;28;20388;-71
2021/08/10 03:39:40;;;;;;;3.43;2.20;;;15.40;99.90;;;;;;5041247;28;20423;-71
2021/08/10 03:42:07;;;;;;;3.63;2.20;;;15.40;99.90;;;;;;5051818;28;20596;-71
2021/08/10 03:44:35;;;;;;;3.77;2.73;;;15.40;99.90;;;;;;5053066;28;20423;-71
2021/08/10 03:47:01;;;;;;;3.23;2.00;;;15.30;99.90;;;;;;5053857;28;20430;-71
2021/08/10 03:49:29;;;;;;;3.33;2.07;;;15.30;99.90;;;;;;5053843;28;20391;-71
2021/08/10 03:51:55;;;;;;;2.90;2.40;;;15.30;99.90;;;;;;5053853;28;20395;-71
2021/08/10 03:54:21;;;;;;;2.50;1.80;;;15.30;99.90;;;;;;5054644;28;20752;-71
2021/08/10 03:56:50;;;;;;;3.70;2.40;;;15.30;99.90;;;;;;5053519;28;20259;-71
2021/08/10 03:59:17;;;;;;;2.30;2.10;;;15.30;99.90;;;;;;5053394;28;20192;-71
2021/08/10 04:01:44;;;;;;;2.67;2.30;;;15.20;99.90;;;;;;5053557;28;20449;-71
2021/08/10 04:04:11;;;;;;;2.83;1.93;;;15.20;99.90;;;;;;5053877;28;20506;-71
2021/08/10 04:06:38;;;;;;;2.67;2.43;;;15.20;99.90;;;;;;5053630;28;20453;-71
2021/08/10 04:09:06;;;;;;;4.10;2.23;;;15.20;99.90;;;;;;5054399;28;20398;-71
2021/08/10 04:11:32;;;;;;;3.30;1.87;;;15.10;99.90;;;;;;5053749;28;20446;-71
2021/08/10 04:14:00;;;;;;;4.57;2.10;;;15.10;99.90;;;;;;5052883;28;21016;-71
2021/08/10 04:16:27;;;;;;;2.80;2.03;;;15.10;99.90;;;;;;5053190;28;20419;-71
2021/08/10 04:18:54;;;;;;;2.00;1.67;;;15.10;99.90;;;;;;5052379;28;20893;-71
2021/08/10 04:21:24;;;;;;;3.00;2.53;;;15.10;99.90;;;;;;5049859;28;20505;-71
2021/08/10 04:23:50;;;;;;;2.77;2.20;;;15.10;99.90;;;;;;5053684;28;20499;-71
2021/08/10 04:26:15;;;;;;;3.27;2.47;;;15.00;99.90;;;;;;5044758;28;20862;-71
2021/08/10 04:28:41;;;;;;;3.00;2.20;;;15.00;99.90;;;;;;5045242;28;20211;-72
2021/08/10 04:31:06;;;;;;;3.20;2.20;;;15.00;99.90;;;;;;5050036;28;20712;-71
2021/08/10 04:33:32;;;;;;;2.63;2.30;;;14.90;99.90;;;;;;5043590;28;20221;-71
2021/08/10 04:35:57;;;;;;;7.73;3.63;;;14.90;99.90;;;;;;5051820;28;20221;-71
2021/08/10 04:38:23;;;;;;;3.70;2.30;;;14.90;99.90;;;;;;5049213;28;20183;-71
2021/08/10 04:40:48;;;;;;;4.00;1.67;;;14.90;99.90;;;;;;5045802;28;20351;-71
2021/08/10 04:43:14;;;;;;;2.77;2.43;;;14.80;99.90;;;;;;5048182;28;20263;-71
2021/08/10 04:45:39;;;;;;;3.63;2.53;;;14.80;99.90;;;;;;5045775;28;20172;-71
2021/08/10 04:48:05;;;;;;;4.47;2.70;;;14.80;99.90;;;;;;5041825;28;20243;-71
2021/08/10 04:50:31;;;;;;;5.67;3.40;;;14.70;99.90;;;;;;5044677;28;20661;-71
2021/08/10 04:52:56;;;;;;;4.50;2.83;;;14.70;99.90;;;;;;5042824;28;20189;-71
2021/08/10 04:55:22;;;;;;;3.77;2.47;;;14.60;99.90;;;;;;5041176;28;20227;-71
2021/08/10 04:57:47;;;;;;;7.93;3.70;;;14.60;99.90;;;;;;5044751;28;20180;-71
2021/08/10 05:00:13;;;;;;;3.77;2.80;;;14.50;99.90;;;;;;5041395;28;20618;-71
2021/08/10 05:02:39;;;;;;;3.10;2.67;;;14.50;99.90;;;;;;5049914;28;20200;-71
2021/08/10 05:05:06;;;;;;;4.20;2.70;;;14.50;99.90;;;;;;5051370;28;20435;-71
2021/08/10 05:07:31;;;;;;;3.47;2.33;;;14.50;99.90;;;;;;5052717;28;20638;-71
2021/08/10 05:09:57;;;;;;;3.43;2.77;;;14.50;99.90;;;;;;5051685;28;20441;-71
2021/08/10 05:12:22;;;;;;;7.20;3.10;;;14.40;99.90;;;;;;5052243;28;20181;-72
2021/08/10 05:14:49;;;;;;;4.30;2.80;;;14.40;99.90;;;;;;5049755;28;20202;-72
2021/08/10 05:17:16;;;;;;;4.07;2.73;;;14.40;99.90;;;;;;5048966;28;20207;-71
2021/08/10 05:19:41;;;;;;;4.50;3.10;;;14.40;99.90;;;;;;5047867;28;20492;-71
2021/08/10 05:22:07;;;;;;;4.70;3.10;;;14.50;99.90;;;;;;5045784;28;20498;-71
2021/08/10 05:24:32;;;;;;;4.43;3.33;;;14.50;99.90;;;;;;5047289;28;20180;-71
2021/08/10 05:26:58;;;;;;;4.37;2.80;;;14.50;99.90;;;;;;5042982;28;20176;-71
2021/08/10 05:29:23;;;;;;;4.37;2.57;;;14.50;99.90;;;;;;5045043;28;20540;-71
2021/08/10 05:31:49;;;;;;;4.50;2.87;;;14.50;99.90;;;;;;5050353;28;20211;-71
2021/08/10 05:34:14;;;;;;;5.23;3.50;;;14.60;99.90;;;;;;5041033;28;20260;-71
2021/08/10 05:36:40;;;;;;;3.70;2.90;;;14.60;99.90;;;;;;5046851;28;20541;-71
2021/08/10 05:39:05;;;;;;;5.90;3.77;;;14.70;99.90;;;;;;5045914;28;20234;-71
2021/08/10 05:41:31;;;;;;;4.67;2.87;;;14.70;99.90;;;;;;5041560;28;20200;-71
2021/08/10 05:43:57;;;;;;;4.50;3.43;;;14.70;99.90;;;;;;5043831;28;20259;-71
2021/08/10 05:46:22;;;;;;;3.90;2.93;;;14.80;99.90;;;;;;5045617;28;20177;-71
2021/08/10 05:48:48;;;;;;;6.93;3.30;;;14.80;99.90;;;;;;5041027;28;20220;-71
2021/08/10 05:51:13;;;;;;;5.10;3.47;;;14.90;99.90;;;;;;5038170;28;20263;-71
2021/08/10 05:53:39;;;;;;;4.40;2.70;;;14.90;99.90;;;;;;5041885;28;20752;-71
2021/08/10 05:56:05;;;;;;;5.33;3.40;;;15.00;99.90;;;;;;5041575;28;20195;-71
2021/08/10 05:58:30;;;;;;;4.90;3.37;;;15.00;99.90;;;;;;5051190;28;20261;-71
2021/08/10 06:00:56;;;;;;;4.70;3.30;;;15.00;99.90;;;;;;5052264;28;20493;-70
2021/08/10 06:03:22;;;;;;;4.40;3.17;;;15.10;99.90;;;;;;5049678;28;20544;-71
2021/08/10 06:05:47;;;;;;;4.60;3.93;;;15.20;99.90;;;;;;5052902;28;20233;-71
2021/08/10 06:08:13;;;;;;;5.67;3.60;;;15.20;99.90;;;;;;5052957;28;20180;-71
2021/08/10 06:10:39;;;;;;;5.40;4.23;;;15.30;99.90;;;;;;5055079;28;20188;-71
2021/08/10 06:13:04;;;;;;;3.37;2.70;;;15.40;99.90;;;;;;5045163;28;20612;-71
2021/08/10 06:15:30;;;;;;;4.50;3.03;;;15.40;99.90;;;;;;5049361;28;20517;-71
2021/08/10 06:17:56;;;;;;;3.57;2.77;;;15.50;99.90;;;;;;5054975;28;20242;-71
2021/08/10 06:20:22;;;;;;;5.53;3.70;;;15.50;99.90;;;;;;5051923;28;20192;-71
2021/08/10 06:22:48;;;;;;;4.57;2.30;;;15.60;99.90;;;;;;5055516;28;20294;-71
2021/08/10 06:25:14;;;;;;;4.13;2.73;;;15.70;99.90;;;;;;5055534;28;20951;-71
2021/08/10 06:27:40;;;;;;;2.97;2.63;;;15.70;99.90;;;;;;5055181;28;20935;-71
2021/08/10 06:30:08;;;;;;;3.70;3.00;;;15.80;99.90;;;;;;5056716;28;20192;-71
2021/08/10 06:32:33;;;;;;;4.50;2.90;;;15.90;99.90;;;;;;5056481;28;20412;-71
2021/08/10 06:34:59;;;;;;;3.63;2.93;;;16.00;99.90;;;;;;5052893;28;20439;-71
2021/08/10 06:37:24;;;;;;;2.90;2.60;;;16.00;99.90;;;;;;5054029;28;20185;-71
2021/08/10 06:39:50;;;;;;;4.10;2.77;;;16.10;99.90;;;;;;5051705;28;20326;-71
2021/08/10 06:42:20;;;;;;;2.83;2.30;;;16.20;99.90;;;;;;5052619;28;20215;-71
2021/08/10 06:44:46;;;;;;;4.33;2.87;;;16.30;99.90;;;;;;5035454;28;20179;-71
2021/08/10 06:47:12;;;;;;;2.70;2.43;;;16.30;99.90;;;;;;5052989;28;20829;-71
2021/08/10 06:49:38;;;;;;;2.47;2.27;;;16.40;99.90;;;;;;5054523;28;20419;-71
2021/08/10 06:52:07;;;;;;;6.30;3.40;;;16.50;99.90;;;;;;5038665;28;20420;-71
2021/08/10 06:54:33;;;;;;;3.90;2.57;;;16.70;99.90;;;;;;5034772;28;20437;-72
2021/08/10 06:57:04;;;;;;;5.50;2.83;;;16.80;99.90;;;;;;5043668;28;20945;-72
2021/08/10 06:59:30;;;;;;;3.63;3.10;;;17.00;99.90;;;;;;5053310;28;20251;-71
2021/08/10 07:01:56;;;;;;;5.40;2.93;;;17.20;99.90;;;;;;5055348;28;20493;-71
2021/08/10 07:04:22;;;;;;;3.47;2.70;;;17.50;99.90;;;;;;5054669;28;20444;-71
2021/08/10 07:06:47;;;;;;;5.33;2.40;;;17.60;99.90;;;;;;5054602;28;20184;-71
2021/08/10 07:09:14;;;;;;;3.30;2.57;;;17.80;99.90;;;;;;5043181;28;20271;-71
2021/08/10 07:11:42;;;;;;;3.30;2.27;;;17.90;99.90;;;;;;5051112;28;20196;-71
2021/08/10 07:14:11;;;;;;;3.50;2.30;;;18.10;99.90;;;;;;5043600;28;20493;-71
2021/08/10 07:16:38;;;;;;;4.17;2.33;;;18.20;99.90;;;;;;5054710;28;20415;-72
2021/08/10 07:19:04;;;;;;;2.77;2.10;;;18.30;99.90;;;;;;5054310;28;20442;-71
2021/08/10 07:21:29;;;;;;;2.00;1.80;;;18.50;99.90;;;;;;5054073;28;20458;-71
2021/08/10 07:23:55;;;;;;;2.53;2.30;;;18.50;99.90;;;;;;5053798;28;20489;-71
2021/08/10 07:26:21;;;;;;;3.83;2.10;;;18.60;99.90;;;;;;5050686;28;20192;-71
2021/08/10 07:28:46;;;;;;;3.43;2.07;;;18.70;99.90;;;;;;5053291;28;20181;-71
2021/08/10 07:31:12;;;;;;;3.60;2.23;;;18.80;99.90;;;;;;5053777;28;20168;-72
2021/08/10 07:33:37;;;;;;;2.53;2.30;;;18.90;99.90;;;;;;5054229;28;20177;-71
2021/08/10 07:36:03;;;;;;;2.30;1.90;;;19.00;99.90;;;;;;5045394;28;20264;-72
2021/08/10 07:38:29;;;;;;;3.17;2.23;;;19.10;99.90;;;;;;5043320;28;20189;-72
2021/08/10 07:40:54;;;;;;;2.97;2.50;;;19.20;99.90;;;;;;5044330;28;20651;-71
2021/08/10 07:43:20;;;;;;;2.30;2.10;;;19.40;99.90;;;;;;5046223;28;20186;-71
2021/08/10 07:45:45;;;;;;;3.00;2.23;;;19.60;99.90;;;;;;5052778;28;20250;-72
2021/08/10 07:48:11;;;;;;;2.40;1.87;;;20.20;99.90;;;;;;5053635;28;20153;-71
2021/08/10 07:50:36;;;;;;;2.27;1.70;;;21.00;99.90;;;;;;5050145;28;20182;-72
2021/08/10 07:53:02;;;;;;;1.90;1.73;;;21.90;99.90;;;;;;5049827;28;20175;-72
2021/08/10 07:55:28;;;;;;;2.07;1.50;;;22.50;99.90;;;;;;5042506;28;20209;-71
2021/08/10 07:57:54;;;;;;;2.03;1.80;;;23.30;99.90;;;;;;5045380;28;20264;-72
2021/08/10 08:00:20;;;;;;;2.17;1.43;;;23.90;99.90;;;;;;5049779;28;20228;-71
2021/08/10 08:02:45;;;;;;;3.57;1.77;;;24.20;99.90;;;;;;5046788;28;20518;-71
2021/08/10 08:05:11;;;;;;;1.73;1.23;;;24.60;99.90;;;;;;5044940;28;20417;-72
2021/08/10 08:07:37;;;;;;;2.20;1.57;;;25.30;99.90;;;;;;5048543;28;20202;-71
2021/08/10 08:10:03;;;;;;;2.20;1.83;;;26.00;99.90;;;;;;5041523;28;20171;-72
2021/08/10 08:12:28;;;;;;;4.00;1.13;;;26.90;99.90;;;;;;5045232;28;20232;-72
2021/08/10 08:14:54;;;;;;;2.60;1.10;;;27.20;99.90;;;;;;5048612;28;20940;-70
2021/08/10 08:17:19;;;;;;;2.20;1.30;;;27.10;99.90;;;;;;5044163;28;20634;-70
2021/08/10 08:19:45;;;;;;;2.90;1.97;;;26.60;99.90;;;;;;5041629;28;20176;-70
2021/08/10 08:22:11;;;;;;;1.53;1.27;;;26.50;99.90;;;;;;5047492;28;20313;-71
2021/08/10 08:24:36;;;;;;;3.67;2.00;;;26.50;99.90;;;;;;5046724;28;20549;-71
2021/08/10 08:27:02;;;;;;;1.93;1.63;;;26.80;99.90;;;;;;5041742;28;20176;-71
2021/08/10 08:29:27;;;;;;;2.00;1.30;;;27.20;99.90;;;;;;5048970;28;20174;-71
2021/08/10 08:31:53;;;;;;;2.40;1.53;;;27.50;98.20;;;;;;5042723;28;20558;-71
2021/08/10 08:34:19;;;;;;;2.60;1.60;;;28.30;97.60;;;;;;5045018;28;20201;-71
2021/08/10 08:36:44;;;;;;;2.87;1.47;;;28.70;94.90;;;;;;5042636;28;20296;-71
2021/08/10 08:39:10;;;;;;;1.73;1.20;;;28.60;96.20;;;;;;5044468;28;20168;-71
2021/08/10 08:41:35;;;;;;;2.57;1.70;;;28.80;95.60;;;;;;5046191;28;20566;-71
2021/08/10 08:44:01;;;;;;;1.53;1.20;;;28.60;95.10;;;;;;5044102;28;20180;-71
2021/08/10 08:46:27;;;;;;;1.70;1.23;;;28.30;93.80;;;;;;5041512;28;20169;-71
2021/08/10 08:48:54;;;;;;;2.53;1.50;;;27.80;95.10;;;;;;5045686;28;20172;-71
2021/08/10 08:51:24;;;;;;;2.40;1.70;;;27.40;96.70;;;;;;5042237;28;20443;-71
2021/08/10 08:53:52;;;;;;;1.90;1.40;;;27.00;96.30;;;;;;5043074;28;20506;-71
2021/08/10 08:56:19;;;;;;;4.90;1.70;;;26.70;96.80;;;;;;5047061;28;20438;-71
2021/08/10 08:58:45;;;;;;;1.93;1.50;;;26.40;97.50;;;;;;5052588;28;20568;-71
2021/08/10 09:01:13;;;;;;;2.40;1.77;;;26.10;97.90;;;;;;5048170;28;20458;-71
2021/08/10 09:03:38;;;;;;;3.60;1.80;;;26.10;97.20;;;;;;5051785;28;20524;-71
2021/08/10 09:06:04;;;;;;;2.43;1.77;;;26.10;97.90;;;;;;5045044;28;20442;-71
2021/08/10 09:11:15;;;;;;;2.93;1.70;;;26.20;99.20;;;;;;5069813;28;20658;-75
2021/08/10 09:13:56;;;;;;;3.53;1.73;;;26.80;98.90;;;;;;5069838;28;20386;-75
2021/08/10 09:16:22;;;;;;;2.63;2.00;;;27.60;94.30;;;;;;5062463;28;20454;-75
2021/08/10 09:18:47;;;;;;;3.30;2.00;;;28.10;94.80;;;;;;5062430;28;21015;-75
2021/08/10 09:21:16;;;;;;;2.30;1.73;;;28.50;94.30;;;;;;5061456;28;20718;-75
2021/08/10 09:26:22;;;;;;;2.67;1.80;;;28.80;93.40;;;;;;5056265;28;20607;-72
2021/08/10 09:28:49;;;;;;;2.07;1.83;;;29.70;91.50;;;;;;5049909;28;20392;-72
2021/08/10 09:31:33;;;;;;;3.57;2.30;;;29.50;91.40;;;;;;5049879;28;20391;-72
2021/08/10 09:34:02;;;;;;;2.13;1.80;;;29.10;90.90;;;;;;5050646;28;20403;-72
2021/08/10 09:36:28;;;;;;;2.97;2.53;;;28.60;91.10;;;;;;5045614;28;20446;-71
2021/08/10 09:38:56;;;;;;;4.23;2.13;;;28.10;91.20;;;;;;5030233;28;20406;-71
2021/08/10 09:41:22;;;;;;;4.10;2.80;;;27.70;92.60;;;;;;5036683;28;20411;-72
2021/08/10 09:43:49;;;;;;;6.23;3.77;;;27.30;93.40;;;;;;5049532;28;20422;-71
2021/08/10 09:48:55;;;;;;;3.87;2.63;;;26.80;94.10;;;;;;5067448;28;20581;-71
2021/08/10 09:51:23;;;;;;;3.67;3.10;;;26.00;96.40;;;;;;5044530;28;20497;-71
2021/08/10 09:54:10;;;;;;;6.00;2.77;;;25.50;97.00;;;;;;5044930;28;20450;-71
2021/08/10 09:59:23;;;;;;;5.50;3.03;;;25.20;98.20;;;;;;5062277;28;20698;-72
2021/08/10 10:01:53;;;;;;;3.40;2.67;;;25.10;99.80;;;;;;5043339;28;20888;-72
2021/08/10 10:04:22;;;;;;;4.07;2.83;;;25.10;99.40;;;;;;5039469;28;20752;-72
2021/08/10 10:06:50;;;;;;;3.00;2.70;;;25.10;99.30;;;;;;5039234;28;20392;-72
2021/08/10 10:09:17;;;;;;;2.83;2.60;;;25.10;99.90;;;;;;5039656;28;20391;-72
2021/08/10 10:11:45;;;;;;;4.13;2.90;;;25.10;98.90;;;;;;5043109;28;20438;-72
2021/08/10 10:14:12;;;;;;;4.93;3.33;;;25.20;99.30;;;;;;5040467;28;20517;-72
2021/08/10 10:16:41;;;;;;;6.83;3.63;;;25.30;99.00;;;;;;5040869;28;20410;-72
2021/08/10 10:19:10;;;;;;;7.53;4.80;;;25.40;98.80;;;;;;5038708;28;20542;-72
2021/08/10 10:21:38;;;;;;;4.57;3.70;;;25.40;99.10;;;;;;5031044;28;20419;-72
2021/08/10 10:24:04;;;;;;;3.60;2.63;;;25.40;97.80;;;;;;5037693;28;20416;-72
2021/08/10 10:26:31;;;;;;;3.80;2.60;;;25.40;96.20;;;;;;5031696;28;20910;-72
2021/08/10 10:28:58;;;;;;;2.97;2.30;;;25.20;95.80;;;;;;5043533;28;20434;-72
2021/08/10 10:31:23;;;;;;;3.40;2.90;;;25.20;97.70;;;;;;5047708;28;20442;-72
2021/08/10 10:33:51;;;;;;;2.63;2.30;;;25.30;98.10;;;;;;5040252;28;20457;-72
2021/08/10 10:36:17;;;;;;;3.27;2.53;;;25.30;98.10;;;;;;5028355;28;20165;-72
2021/08/10 10:38:44;;;;;;;3.60;3.00;;;25.30;99.00;;;;;;5040389;28;20472;-73
2021/08/10 10:41:12;;;;;;;3.60;3.20;;;25.30;95.80;;;;;;5039919;28;20783;-72
2021/08/10 10:43:38;;;;;;;4.50;3.03;;;25.40;97.20;;;;;;5048389;28;20480;-72
2021/08/10 10:46:26;;;;;;;4.90;2.70;;;25.30;96.60;;;;;;5042216;28;20426;-72
2021/08/10 10:48:51;;;;;;;9.57;5.70;;;25.20;96.70;;;;;;5042195;28;20900;-72
2021/08/10 10:51:23;;;;;;;9.00;6.10;;;25.10;97.00;;;;;;5039091;28;20413;-73
2021/08/10 10:53:49;;;;;;;6.10;4.60;;;25.00;98.60;;;;;;5040502;28;20530;-72
2021/08/10 10:56:31;;;;;;;4.20;2.97;;;24.80;98.30;;;;;;5044927;28;20421;-72
2021/08/10 11:02:12;;;;;;;3.30;3.00;;;24.70;97.80;;;;;;5129240;27;20624;-73
2021/08/10 11:04:38;;;;;;;5.20;4.30;;;24.70;99.10;;;;;;5124447;28;20422;-73
2021/08/10 11:07:40;;;;;;;7.23;4.13;;;24.60;98.40;;;;;;5123898;28;20788;-73
2021/08/10 11:10:10;;;;;;;3.40;3.10;;;24.60;99.90;;;;;;5125266;28;20165;-73
2021/08/10 11:15:17;;;;;;;3.10;2.80;;;24.60;99.20;;;;;;5065255;28;20657;-73
2021/08/10 11:28:46;;;;;;;5.80;3.70;;;24.20;97.70;;;;;;5068467;28;20980;-72
2021/08/10 11:31:29;;;;;;;3.57;3.30;;;24.30;99.90;;;;;;5065306;28;20434;-72
2021/08/10 11:33:55;;;;;;;5.23;3.20;;;24.20;99.90;;;;;;5068367;28;20401;-72
2021/08/10 11:36:22;;;;;;;3.37;3.03;;;24.20;99.90;;;;;;5065501;28;20422;-72
2021/08/10 11:41:33;;;;;;;4.10;3.40;;;24.10;99.00;;;;;;5063721;28;20520;-73
2021/08/10 11:44:02;;;;;;;5.67;4.80;;;23.90;99.90;;;;;;5059909;28;20473;-73
2021/08/10 11:46:31;;;;;;;3.93;3.40;;;23.80;99.90;;;;;;5055622;28;20426;-74
2021/08/10 11:51:39;;;;;;;3.97;3.57;;;23.60;99.90;;;;;;5090077;27;20527;-71
2021/08/10 11:56:54;;;;;;;4.37;3.17;;;23.10;99.90;;;;;;5127491;27;20532;-72
2021/08/10 11:59:24;;;;;;;3.23;2.97;;;23.00;99.90;;;;;;5097424;28;20468;-72
2021/08/10 12:01:50;;;;;;;3.30;3.00;;;23.00;99.90;;;;;;5089691;28;20840;-72
2021/08/10 12:04:21;;;;;;;6.73;3.87;;;22.90;99.90;;;;;;5089499;28;20413;-72
2021/08/10 12:06:49;;;;;;;4.13;3.40;;;22.90;99.90;;;;;;5089449;28;20446;-72
2021/08/10 12:09:17;;;;;;;5.07;4.53;;;22.80;99.90;;;;;;5084681;28;20444;-72
2021/08/10 12:11:47;;;;;;;3.60;2.90;;;22.80;99.90;;;;;;5089144;28;20441;-72
2021/08/10 12:17:12;;;;;;;3.13;2.50;;;22.90;99.90;;;;;;5067507;28;20649;-72
2021/08/10 12:19:41;;;;;;;3.33;3.03;;;23.10;99.90;;;;;;5049640;28;20415;-72
2021/08/10 12:24:50;;;;;;;3.63;2.80;;;23.10;99.90;;;;;;5066094;28;20662;-73
2021/08/10 12:27:18;;;;;;;4.00;3.17;;;23.00;99.90;;;;;;5045417;28;20468;-73
2021/08/10 12:29:48;;;;;;;2.97;2.77;;;23.00;99.90;;;;;;5046763;28;20403;-74
2021/08/10 12:32:26;;;;;;;4.10;3.00;;;23.10;99.90;;;;;;5046278;28;20426;-74
2021/08/10 12:34:54;;;;;;;3.57;2.53;;;23.10;99.90;;;;;;5039690;28;20509;-74
2021/08/10 12:37:30;;;;;;;4.43;2.80;;;23.10;99.90;;;;;;5040278;28;20410;-74
2021/08/10 12:39:55;;;;;;;3.73;2.30;;;23.20;99.90;;;;;;5041489;28;20431;-74
2021/08/10 12:42:22;;;;;;;4.70;2.77;;;23.30;99.90;;;;;;5040849;28;20408;-74
2021/08/10 12:44:50;;;;;;;2.97;2.70;;;23.30;99.90;;;;;;5038878;28;20215;-74
2021/08/10 12:47:16;;;;;;;2.70;2.20;;;23.40;99.90;;;;;;5042729;28;20506;-74
2021/08/10 12:49:44;;;;;;;3.60;2.70;;;23.40;99.90;;;;;;5038882;28;20434;-74
2021/08/10 12:57:30;;;;;;;3.20;2.80;;;23.50;99.90;;;;;;5130656;27;21104;-72
2021/08/10 12:59:58;;;;;;;2.60;1.77;;;23.40;99.90;;;;;;5114956;28;20446;-71
2021/08/10 13:08:04;;;;;;;1.70;1.53;;;23.20;99.90;;;;;;5109750;27;20511;-72
2021/08/10 13:10:32;;;;;;;2.60;2.13;;;23.20;99.90;;;;;;5078043;28;20460;-73
2021/08/10 13:13:02;;;;;;;1.53;1.43;;;23.10;99.90;;;;;;5084718;28;20428;-72
2021/08/10 13:15:38;;;;;;;3.87;1.80;;;23.20;99.90;;;;;;5068522;28;20420;-72
2021/08/10 13:18:24;;;;;;;2.70;1.60;;;23.30;99.90;;;;;;5070105;28;20419;-71
2021/08/10 13:20:54;;;;;;;2.60;2.10;;;23.40;99.90;;;;;;5072679;28;20791;-71
2021/08/10 13:23:21;;;;;;;4.23;2.40;;;23.40;99.90;;;;;;5088392;28;20792;-72
2021/08/10 13:26:05;;;;;;;3.93;2.13;;;23.40;99.90;;;;;;5086464;28;20510;-72
2021/08/10 13:28:35;;;;;;;2.80;2.17;;;23.20;99.90;;;;;;5080414;28;20842;-71
2021/08/10 13:31:23;;;;;;;2.43;2.13;;;23.10;99.90;;;;;;5072384;28;20425;-71
2021/08/10 13:34:06;;;;;;;2.10;1.80;;;23.10;99.90;;;;;;5068225;28;20501;-71
2021/08/10 13:36:33;;;;;;;1.60;1.40;;;23.00;99.90;;;;;;5069850;28;20519;-71
2021/08/10 13:39:01;;;;;;;2.17;1.53;;;22.90;99.90;;;;;;5083341;28;20773;-71
2021/08/10 13:41:29;;;;;;;1.63;1.50;;;22.90;99.90;;;;;;5089376;28;20405;-71
2021/08/10 13:43:55;;;;;;;1.70;1.47;;;22.90;99.90;;;;;;5089474;28;20421;-71
2021/08/10 13:46:22;;;;;;;1.90;1.20;;;22.80;99.90;;;;;;5082592;28;20970;-71
2021/08/10 13:48:48;;;;;;;2.20;1.60;;;22.90;99.90;;;;;;5073862;28;20179;-71
2021/08/10 13:51:14;;;;;;;2.97;2.10;;;22.90;99.90;;;;;;5086742;28;20436;-71